sensor_id;sensor_type;location;lat;lon;timestamp;P1;durP1;ratioP1;P2;durP2;ratioP2
2157;SDS011;41972;48.774;9.282;2023-02-14T00:01:33;54.60;;;49.00;;
2157;SDS011;41972;48.774;9.282;2023-02-14T00:03:59;57.07;;;51.27;;
2157;SDS011;41972;48.774;9.282;2023-02-14T00:06:25;56.17;;;49.60;;
2157;SDS011;41972;48.774;9.282;2023-02-14T00:08:51;47.77;;;42.57;;
2157;SDS011;41972;48.774;9.282;2023-02-14T00:11:18;55.37;;;49.90;;
2157;SDS011;41972;48.774;9.282;2023-02-14T00:13:44;59.07;;;53.53;;
2157;SDS011;41972;48.774;9.282;2023-02-14T00:16:29;52.50;;;44.80;;
2157;SDS011;41972;48.774;9.282;2023-02-14T00:18:55;49.33;;;43.90;;
2157;SDS011;41972;48.774;9.282;2023-02-14T00:21:27;51.63;;;46.13;;
2157;SDS011;41972;48.774;9.282;2023-02-14T00:23:53;50.03;;;43.90;;
2157;SDS011;41972;48.774;9.282;2023-02-14T00:26:19;73.80;;;68.03;;
2157;SDS011;41972;48.774;9.282;2023-02-14T00:28:44;48.53;;;43.40;;
2157;SDS011;41972;48.774;9.282;2023-02-14T00:31:10;48.53;;;43.43;;
2157;SDS011;41972;48.774;9.282;2023-02-14T00:33:35;50.00;;;44.57;;
2157;SDS011;41972;48.774;9.282;2023-02-14T00:36:04;48.40;;;41.60;;
2157;SDS011;41972;48.774;9.282;2023-02-14T00:38:31;45.03;;;40.13;;
2157;SDS011;41972;48.774;9.282;2023-02-14T00:40:57;47.50;;;40.10;;
2157;SDS011;41972;48.774;9.282;2023-02-14T00:43:23;44.33;;;39.53;;
2157;SDS011;41972;48.774;9.282;2023-02-14T00:45:49;49.10;;;40.17;;
2157;SDS011;41972;48.774;9.282;2023-02-14T00:48:14;49.17;;;44.10;;
2157;SDS011;41972;48.774;9.282;2023-02-14T00:50:40;52.17;;;44.20;;
2157;SDS011;41972;48.774;9.282;2023-02-14T00:53:06;50.83;;;45.33;;
2157;SDS011;41972;48.774;9.282;2023-02-14T00:55:31;52.93;;;44.67;;
2157;SDS011;41972;48.774;9.282;2023-02-14T00:57:57;58.17;;;47.50;;
2157;SDS011;41972;48.774;9.282;2023-02-14T01:00:22;56.20;;;47.83;;
2157;SDS011;41972;48.774;9.282;2023-02-14T01:02:48;75.73;;;68.30;;
2157;SDS011;41972;48.774;9.282;2023-02-14T01:05:13;63.70;;;52.13;;
2157;SDS011;41972;48.774;9.282;2023-02-14T01:07:39;60.43;;;52.40;;
2157;SDS011;41972;48.774;9.282;2023-02-14T01:10:05;56.40;;;47.20;;
2157;SDS011;41972;48.774;9.282;2023-02-14T01:12:31;58.53;;;52.10;;
2157;SDS011;41972;48.774;9.282;2023-02-14T01:14:56;60.17;;;49.03;;
2157;SDS011;41972;48.774;9.282;2023-02-14T01:17:22;60.47;;;49.90;;
2157;SDS011;41972;48.774;9.282;2023-02-14T01:19:50;58.43;;;50.23;;
2157;SDS011;41972;48.774;9.282;2023-02-14T01:22:16;63.57;;;52.10;;
2157;SDS011;41972;48.774;9.282;2023-02-14T01:24:42;63.00;;;51.77;;
2157;SDS011;41972;48.774;9.282;2023-02-14T01:27:07;67.83;;;52.00;;
2157;SDS011;41972;48.774;9.282;2023-02-14T01:29:33;65.70;;;54.07;;
2157;SDS011;41972;48.774;9.282;2023-02-14T01:31:58;66.73;;;53.80;;
2157;SDS011;41972;48.774;9.282;2023-02-14T01:34:24;84.43;;;62.47;;
2157;SDS011;41972;48.774;9.282;2023-02-14T01:36:49;71.37;;;57.07;;
2157;SDS011;41972;48.774;9.282;2023-02-14T01:39:15;76.47;;;68.63;;
2157;SDS011;41972;48.774;9.282;2023-02-14T01:41:42;73.83;;;62.77;;
2157;SDS011;41972;48.774;9.282;2023-02-14T01:46:37;77.77;;;61.57;;
2157;SDS011;41972;48.774;9.282;2023-02-14T01:52:28;77.93;;;61.17;;
2157;SDS011;41972;48.774;9.282;2023-02-14T01:54:31;67.43;;;55.77;;
2157;SDS011;41972;48.774;9.282;2023-02-14T01:57:00;75.93;;;60.60;;
2157;SDS011;41972;48.774;9.282;2023-02-14T01:59:31;75.93;;;68.43;;
2157;SDS011;41972;48.774;9.282;2023-02-14T02:02:00;66.37;;;57.27;;
2157;SDS011;41972;48.774;9.282;2023-02-14T02:04:28;67.80;;;56.73;;
2157;SDS011;41972;48.774;9.282;2023-02-14T02:07:02;66.23;;;55.90;;
2157;SDS011;41972;48.774;9.282;2023-02-14T02:09:32;70.13;;;63.23;;
2157;SDS011;41972;48.774;9.282;2023-02-14T02:12:00;66.47;;;56.57;;
2157;SDS011;41972;48.774;9.282;2023-02-14T02:14:26;59.33;;;51.60;;
2157;SDS011;41972;48.774;9.282;2023-02-14T02:17:14;68.77;;;53.17;;
2157;SDS011;41972;48.774;9.282;2023-02-14T02:23:00;58.37;;;52.10;;
2157;SDS011;41972;48.774;9.282;2023-02-14T02:48:08;61.50;;;47.47;;
2157;SDS011;41972;48.774;9.282;2023-02-14T02:50:41;79.50;;;71.80;;
2157;SDS011;41972;48.774;9.282;2023-02-14T02:56:13;63.50;;;49.07;;
2157;SDS011;41972;48.774;9.282;2023-02-14T02:59:12;62.10;;;48.33;;
2157;SDS011;41972;48.774;9.282;2023-02-14T03:04:27;65.20;;;53.63;;
2157;SDS011;41972;48.774;9.282;2023-02-14T03:07:12;65.70;;;59.17;;
2157;SDS011;41972;48.774;9.282;2023-02-14T03:09:57;62.40;;;52.90;;
2157;SDS011;41972;48.774;9.282;2023-02-14T03:15:37;61.93;;;48.77;;
2157;SDS011;41972;48.774;9.282;2023-02-14T03:21:30;56.97;;;51.10;;
2157;SDS011;41972;48.774;9.282;2023-02-14T03:32:52;58.57;;;47.10;;
2157;SDS011;41972;48.774;9.282;2023-02-14T03:35:24;64.00;;;57.20;;
2157;SDS011;41972;48.774;9.282;2023-02-14T03:38:06;63.07;;;50.00;;
2157;SDS011;41972;48.774;9.282;2023-02-14T03:43:07;60.00;;;46.27;;
2157;SDS011;41972;48.774;9.282;2023-02-14T03:45:41;56.57;;;47.40;;
2157;SDS011;41972;48.774;9.282;2023-02-14T03:48:13;50.20;;;42.70;;
2157;SDS011;41972;48.774;9.282;2023-02-14T03:50:42;57.13;;;50.93;;
2157;SDS011;41972;48.774;9.282;2023-02-14T03:53:10;61.60;;;50.90;;
2157;SDS011;41972;48.774;9.282;2023-02-14T03:55:40;57.78;;;49.10;;
2157;SDS011;41972;48.774;9.282;2023-02-14T03:58:23;62.38;;;48.53;;
2157;SDS011;41972;48.774;9.282;2023-02-14T04:00:53;55.88;;;48.17;;
2157;SDS011;41972;48.774;9.282;2023-02-14T04:03:24;59.00;;;48.95;;
2157;SDS011;41972;48.774;9.282;2023-02-14T04:05:51;58.60;;;50.55;;
2157;SDS011;41972;48.774;9.282;2023-02-14T04:08:21;60.67;;;47.40;;
2157;SDS011;41972;48.774;9.282;2023-02-14T04:10:51;70.90;;;55.57;;
2157;SDS011;41972;48.774;9.282;2023-02-14T04:13:18;62.53;;;52.05;;
2157;SDS011;41972;48.774;9.282;2023-02-14T04:15:44;58.97;;;52.60;;
2157;SDS011;41972;48.774;9.282;2023-02-14T04:18:10;54.58;;;45.80;;
2157;SDS011;41972;48.774;9.282;2023-02-14T04:20:54;61.28;;;49.40;;
2157;SDS011;41972;48.774;9.282;2023-02-14T04:23:20;55.20;;;45.67;;
2157;SDS011;41972;48.774;9.282;2023-02-14T04:25:45;62.37;;;47.33;;
2157;SDS011;41972;48.774;9.282;2023-02-14T04:28:11;51.93;;;44.90;;
2157;SDS011;41972;48.774;9.282;2023-02-14T04:30:39;56.00;;;47.90;;
2157;SDS011;41972;48.774;9.282;2023-02-14T04:33:04;64.20;;;57.93;;
2157;SDS011;41972;48.774;9.282;2023-02-14T04:35:32;57.72;;;51.28;;
2157;SDS011;41972;48.774;9.282;2023-02-14T04:37:59;61.28;;;48.92;;
2157;SDS011;41972;48.774;9.282;2023-02-14T04:40:25;47.95;;;40.58;;
2157;SDS011;41972;48.774;9.282;2023-02-14T04:42:51;61.00;;;50.07;;
2157;SDS011;41972;48.774;9.282;2023-02-14T04:45:16;64.80;;;51.00;;
2157;SDS011;41972;48.774;9.282;2023-02-14T04:47:42;61.53;;;49.97;;
2157;SDS011;41972;48.774;9.282;2023-02-14T04:50:08;57.60;;;45.30;;
2157;SDS011;41972;48.774;9.282;2023-02-14T04:52:33;60.87;;;48.27;;
2157;SDS011;41972;48.774;9.282;2023-02-14T04:54:59;68.13;;;53.90;;
2157;SDS011;41972;48.774;9.282;2023-02-14T04:57:25;62.53;;;51.03;;
2157;SDS011;41972;48.774;9.282;2023-02-14T04:59:50;58.27;;;48.60;;
2157;SDS011;41972;48.774;9.282;2023-02-14T05:02:16;57.80;;;47.40;;
2157;SDS011;41972;48.774;9.282;2023-02-14T05:04:41;57.23;;;47.27;;
2157;SDS011;41972;48.774;9.282;2023-02-14T05:07:07;60.00;;;47.20;;
2157;SDS011;41972;48.774;9.282;2023-02-14T05:09:33;59.90;;;48.70;;
2157;SDS011;41972;48.774;9.282;2023-02-14T05:11:58;63.30;;;50.00;;
2157;SDS011;41972;48.774;9.282;2023-02-14T05:14:24;66.80;;;51.37;;
2157;SDS011;41972;48.774;9.282;2023-02-14T05:16:49;63.63;;;57.20;;
2157;SDS011;41972;48.774;9.282;2023-02-14T05:19:15;68.53;;;50.60;;
2157;SDS011;41972;48.774;9.282;2023-02-14T05:21:40;61.40;;;54.50;;
2157;SDS011;41972;48.774;9.282;2023-02-14T05:24:06;63.97;;;51.13;;
2157;SDS011;41972;48.774;9.282;2023-02-14T05:26:31;57.60;;;47.73;;
2157;SDS011;41972;48.774;9.282;2023-02-14T05:28:57;58.33;;;45.90;;
2157;SDS011;41972;48.774;9.282;2023-02-14T05:31:23;58.17;;;47.27;;
2157;SDS011;41972;48.774;9.282;2023-02-14T05:33:48;57.73;;;47.10;;
2157;SDS011;41972;48.774;9.282;2023-02-14T05:36:15;50.25;;;43.65;;
2157;SDS011;41972;48.774;9.282;2023-02-14T05:38:41;59.13;;;49.00;;
2157;SDS011;41972;48.774;9.282;2023-02-14T05:41:06;53.70;;;47.80;;
2157;SDS011;41972;48.774;9.282;2023-02-14T05:43:32;63.13;;;57.13;;
2157;SDS011;41972;48.774;9.282;2023-02-14T05:45:57;52.67;;;46.40;;
2157;SDS011;41972;48.774;9.282;2023-02-14T05:48:23;48.60;;;43.27;;
2157;SDS011;41972;48.774;9.282;2023-02-14T05:50:49;59.83;;;53.70;;
2157;SDS011;41972;48.774;9.282;2023-02-14T05:53:14;50.57;;;44.57;;
2157;SDS011;41972;48.774;9.282;2023-02-14T05:55:40;52.97;;;46.37;;
2157;SDS011;41972;48.774;9.282;2023-02-14T05:58:06;77.47;;;71.07;;
2157;SDS011;41972;48.774;9.282;2023-02-14T06:00:32;52.87;;;43.27;;
2157;SDS011;41972;48.774;9.282;2023-02-14T06:02:58;45.33;;;40.05;;
2157;SDS011;41972;48.774;9.282;2023-02-14T06:05:24;49.33;;;44.00;;
2157;SDS011;41972;48.774;9.282;2023-02-14T06:07:50;48.60;;;43.33;;
2157;SDS011;41972;48.774;9.282;2023-02-14T06:10:17;47.17;;;42.13;;
2157;SDS011;41972;48.774;9.282;2023-02-14T06:12:48;55.60;;;49.80;;
2157;SDS011;41972;48.774;9.282;2023-02-14T06:15:15;51.80;;;46.55;;
2157;SDS011;41972;48.774;9.282;2023-02-14T06:17:40;46.07;;;41.37;;
2157;SDS011;41972;48.774;9.282;2023-02-14T06:20:06;51.47;;;45.33;;
2157;SDS011;41972;48.774;9.282;2023-02-14T06:22:36;49.75;;;44.60;;
2157;SDS011;41972;48.774;9.282;2023-02-14T06:25:02;51.30;;;45.63;;
2157;SDS011;41972;48.774;9.282;2023-02-14T06:27:29;53.78;;;47.90;;
2157;SDS011;41972;48.774;9.282;2023-02-14T06:29:55;56.92;;;51.15;;
2157;SDS011;41972;48.774;9.282;2023-02-14T06:32:20;57.73;;;51.60;;
2157;SDS011;41972;48.774;9.282;2023-02-14T06:34:46;60.37;;;54.27;;
2157;SDS011;41972;48.774;9.282;2023-02-14T06:37:13;56.47;;;50.67;;
2157;SDS011;41972;48.774;9.282;2023-02-14T06:39:39;73.10;;;66.47;;
2157;SDS011;41972;48.774;9.282;2023-02-14T06:42:04;48.03;;;40.20;;
2157;SDS011;41972;48.774;9.282;2023-02-14T06:44:30;46.47;;;41.40;;
2157;SDS011;41972;48.774;9.282;2023-02-14T06:46:55;45.00;;;40.10;;
2157;SDS011;41972;48.774;9.282;2023-02-14T06:49:21;46.50;;;41.50;;
2157;SDS011;41972;48.774;9.282;2023-02-14T06:51:47;43.75;;;39.05;;
2157;SDS011;41972;48.774;9.282;2023-02-14T06:54:13;48.97;;;42.47;;
2157;SDS011;41972;48.774;9.282;2023-02-14T06:56:39;49.27;;;44.13;;
2157;SDS011;41972;48.774;9.282;2023-02-14T06:59:05;58.20;;;52.67;;
2157;SDS011;41972;48.774;9.282;2023-02-14T07:01:30;52.43;;;47.23;;
2157;SDS011;41972;48.774;9.282;2023-02-14T07:03:56;52.73;;;47.23;;
2157;SDS011;41972;48.774;9.282;2023-02-14T07:06:22;46.80;;;41.23;;
2157;SDS011;41972;48.774;9.282;2023-02-14T07:08:48;45.27;;;40.57;;
2157;SDS011;41972;48.774;9.282;2023-02-14T07:11:13;53.47;;;47.70;;
2157;SDS011;41972;48.774;9.282;2023-02-14T07:13:39;56.50;;;50.80;;
2157;SDS011;41972;48.774;9.282;2023-02-14T07:16:04;50.37;;;45.07;;
2157;SDS011;41972;48.774;9.282;2023-02-14T07:18:30;49.10;;;43.90;;
2157;SDS011;41972;48.774;9.282;2023-02-14T07:20:55;49.33;;;44.37;;
2157;SDS011;41972;48.774;9.282;2023-02-14T07:23:21;50.43;;;44.70;;
2157;SDS011;41972;48.774;9.282;2023-02-14T07:25:46;101.90;;;95.20;;
2157;SDS011;41972;48.774;9.282;2023-02-14T07:28:12;50.57;;;45.23;;
2157;SDS011;41972;48.774;9.282;2023-02-14T07:30:37;46.73;;;41.63;;
2157;SDS011;41972;48.774;9.282;2023-02-14T07:33:03;46.57;;;40.37;;
2157;SDS011;41972;48.774;9.282;2023-02-14T07:35:29;45.63;;;40.90;;
2157;SDS011;41972;48.774;9.282;2023-02-14T07:37:54;44.97;;;40.27;;
2157;SDS011;41972;48.774;9.282;2023-02-14T07:40:20;44.93;;;39.80;;
2157;SDS011;41972;48.774;9.282;2023-02-14T07:42:52;44.53;;;40.03;;
2157;SDS011;41972;48.774;9.282;2023-02-14T07:45:18;42.33;;;37.83;;
2157;SDS011;41972;48.774;9.282;2023-02-14T07:47:46;46.40;;;42.00;;
2157;SDS011;41972;48.774;9.282;2023-02-14T07:50:16;43.97;;;39.43;;
2157;SDS011;41972;48.774;9.282;2023-02-14T07:52:42;42.27;;;37.67;;
2157;SDS011;41972;48.774;9.282;2023-02-14T07:55:08;41.20;;;36.93;;
2157;SDS011;41972;48.774;9.282;2023-02-14T07:57:34;44.70;;;38.13;;
2157;SDS011;41972;48.774;9.282;2023-02-14T08:00:00;45.77;;;41.13;;
2157;SDS011;41972;48.774;9.282;2023-02-14T08:02:25;42.20;;;38.00;;
2157;SDS011;41972;48.774;9.282;2023-02-14T08:04:51;37.63;;;33.90;;
2157;SDS011;41972;48.774;9.282;2023-02-14T08:07:16;37.13;;;33.43;;
2157;SDS011;41972;48.774;9.282;2023-02-14T08:09:42;35.33;;;32.13;;
2157;SDS011;41972;48.774;9.282;2023-02-14T08:12:08;31.60;;;28.60;;
2157;SDS011;41972;48.774;9.282;2023-02-14T08:14:53;31.33;;;28.17;;
2157;SDS011;41972;48.774;9.282;2023-02-14T08:17:18;31.87;;;28.97;;
2157;SDS011;41972;48.774;9.282;2023-02-14T08:19:44;32.07;;;28.97;;
2157;SDS011;41972;48.774;9.282;2023-02-14T08:22:09;30.07;;;27.40;;
2157;SDS011;41972;48.774;9.282;2023-02-14T08:24:35;28.73;;;26.20;;
2157;SDS011;41972;48.774;9.282;2023-02-14T08:27:01;29.33;;;26.47;;
2157;SDS011;41972;48.774;9.282;2023-02-14T08:29:26;27.83;;;25.40;;
2157;SDS011;41972;48.774;9.282;2023-02-14T08:31:52;28.90;;;26.40;;
2157;SDS011;41972;48.774;9.282;2023-02-14T08:34:19;29.80;;;27.10;;
2157;SDS011;41972;48.774;9.282;2023-02-14T08:36:44;29.40;;;26.70;;
2157;SDS011;41972;48.774;9.282;2023-02-14T08:39:11;30.50;;;27.80;;
2157;SDS011;41972;48.774;9.282;2023-02-14T08:41:36;26.37;;;23.87;;
2157;SDS011;41972;48.774;9.282;2023-02-14T08:44:02;36.37;;;33.53;;
2157;SDS011;41972;48.774;9.282;2023-02-14T08:46:28;64.87;;;61.07;;
2157;SDS011;41972;48.774;9.282;2023-02-14T08:48:53;29.83;;;27.13;;
2157;SDS011;41972;48.774;9.282;2023-02-14T08:51:20;31.67;;;28.87;;
2157;SDS011;41972;48.774;9.282;2023-02-14T08:53:48;29.03;;;26.53;;
2157;SDS011;41972;48.774;9.282;2023-02-14T08:56:14;34.17;;;31.27;;
2157;SDS011;41972;48.774;9.282;2023-02-14T08:58:40;37.07;;;34.33;;
2157;SDS011;41972;48.774;9.282;2023-02-14T09:01:15;32.50;;;29.80;;
2157;SDS011;41972;48.774;9.282;2023-02-14T09:03:41;30.40;;;28.00;;
2157;SDS011;41972;48.774;9.282;2023-02-14T09:06:12;28.53;;;26.33;;
2157;SDS011;41972;48.774;9.282;2023-02-14T09:08:41;29.90;;;27.50;;
2157;SDS011;41972;48.774;9.282;2023-02-14T09:11:08;28.07;;;25.63;;
2157;SDS011;41972;48.774;9.282;2023-02-14T09:13:35;34.30;;;31.67;;
2157;SDS011;41972;48.774;9.282;2023-02-14T09:16:04;24.30;;;22.17;;
2157;SDS011;41972;48.774;9.282;2023-02-14T09:18:30;25.90;;;23.60;;
2157;SDS011;41972;48.774;9.282;2023-02-14T09:20:56;27.63;;;25.33;;
2157;SDS011;41972;48.774;9.282;2023-02-14T09:23:22;30.13;;;27.83;;
2157;SDS011;41972;48.774;9.282;2023-02-14T09:25:48;25.70;;;23.50;;
2157;SDS011;41972;48.774;9.282;2023-02-14T09:28:13;31.20;;;28.80;;
2157;SDS011;41972;48.774;9.282;2023-02-14T09:30:39;27.60;;;25.40;;
2157;SDS011;41972;48.774;9.282;2023-02-14T09:33:04;30.60;;;28.30;;
2157;SDS011;41972;48.774;9.282;2023-02-14T09:35:30;36.93;;;34.53;;
2157;SDS011;41972;48.774;9.282;2023-02-14T09:37:56;26.70;;;24.40;;
2157;SDS011;41972;48.774;9.282;2023-02-14T09:40:40;34.97;;;32.53;;
2157;SDS011;41972;48.774;9.282;2023-02-14T09:43:08;34.93;;;32.50;;
2157;SDS011;41972;48.774;9.282;2023-02-14T09:45:38;29.97;;;27.80;;
2157;SDS011;41972;48.774;9.282;2023-02-14T09:50:52;30.10;;;27.80;;
2157;SDS011;41972;48.774;9.282;2023-02-14T09:53:27;22.63;;;20.83;;
2157;SDS011;41972;48.774;9.282;2023-02-14T09:56:07;24.40;;;22.50;;
2157;SDS011;41972;48.774;9.282;2023-02-14T10:01:40;34.20;;;32.03;;
2157;SDS011;41972;48.774;9.282;2023-02-14T10:04:13;37.30;;;34.87;;
2157;SDS011;41972;48.774;9.282;2023-02-14T10:07:05;27.50;;;25.50;;
2157;SDS011;41972;48.774;9.282;2023-02-14T10:12:46;39.77;;;36.97;;
2157;SDS011;41972;48.774;9.282;2023-02-14T10:15:28;27.67;;;25.40;;
2157;SDS011;41972;48.774;9.282;2023-02-14T10:18:08;28.67;;;26.33;;
2157;SDS011;41972;48.774;9.282;2023-02-14T10:21:11;25.20;;;23.23;;
2157;SDS011;41972;48.774;9.282;2023-02-14T10:24:08;28.73;;;26.67;;
2157;SDS011;41972;48.774;9.282;2023-02-14T10:26:40;38.90;;;36.47;;
2157;SDS011;41972;48.774;9.282;2023-02-14T10:29:13;28.37;;;25.90;;
2157;SDS011;41972;48.774;9.282;2023-02-14T10:52:42;23.33;;;21.43;;
2157;SDS011;41972;48.774;9.282;2023-02-14T10:57:47;24.73;;;22.83;;
2157;SDS011;41972;48.774;9.282;2023-02-14T11:00:24;27.13;;;25.03;;
2157;SDS011;41972;48.774;9.282;2023-02-14T11:02:57;26.93;;;24.83;;
2157;SDS011;41972;48.774;9.282;2023-02-14T11:05:26;26.13;;;24.07;;
2157;SDS011;41972;48.774;9.282;2023-02-14T11:08:16;25.40;;;23.33;;
2157;SDS011;41972;48.774;9.282;2023-02-14T11:10:47;26.07;;;24.23;;
2157;SDS011;41972;48.774;9.282;2023-02-14T11:13:26;24.83;;;22.93;;
2157;SDS011;41972;48.774;9.282;2023-02-14T11:15:52;25.20;;;23.30;;
2157;SDS011;41972;48.774;9.282;2023-02-14T11:18:22;23.80;;;22.00;;
2157;SDS011;41972;48.774;9.282;2023-02-14T11:20:59;28.53;;;26.40;;
2157;SDS011;41972;48.774;9.282;2023-02-14T11:23:25;29.47;;;27.37;;
2157;SDS011;41972;48.774;9.282;2023-02-14T11:25:55;56.03;;;52.70;;
2157;SDS011;41972;48.774;9.282;2023-02-14T11:28:21;26.23;;;24.23;;
2157;SDS011;41972;48.774;9.282;2023-02-14T11:30:47;42.40;;;39.80;;
2157;SDS011;41972;48.774;9.282;2023-02-14T11:33:32;27.20;;;25.00;;
2157;SDS011;41972;48.774;9.282;2023-02-14T11:35:58;53.33;;;50.40;;
2157;SDS011;41972;48.774;9.282;2023-02-14T11:38:30;33.17;;;30.60;;
2157;SDS011;41972;48.774;9.282;2023-02-14T11:40:59;47.80;;;44.67;;
2157;SDS011;41972;48.774;9.282;2023-02-14T11:43:28;39.87;;;37.07;;
2157;SDS011;41972;48.774;9.282;2023-02-14T11:48:30;26.23;;;24.13;;
2157;SDS011;41972;48.774;9.282;2023-02-14T11:51:05;28.27;;;26.20;;
2157;SDS011;41972;48.774;9.282;2023-02-14T11:56:11;34.13;;;31.93;;
2157;SDS011;41972;48.774;9.282;2023-02-14T11:58:39;35.60;;;32.63;;
2157;SDS011;41972;48.774;9.282;2023-02-14T12:01:24;38.07;;;35.57;;
2157;SDS011;41972;48.774;9.282;2023-02-14T12:03:53;27.63;;;25.47;;
2157;SDS011;41972;48.774;9.282;2023-02-14T12:06:22;31.13;;;28.97;;
2157;SDS011;41972;48.774;9.282;2023-02-14T12:09:09;27.87;;;25.60;;
2157;SDS011;41972;48.774;9.282;2023-02-14T12:11:35;34.50;;;32.10;;
2157;SDS011;41972;48.774;9.282;2023-02-14T12:14:02;27.70;;;25.50;;
2157;SDS011;41972;48.774;9.282;2023-02-14T12:16:37;28.80;;;26.40;;
2157;SDS011;41972;48.774;9.282;2023-02-14T12:19:16;28.73;;;26.53;;
2157;SDS011;41972;48.774;9.282;2023-02-14T12:24:22;26.07;;;24.00;;
2157;SDS011;41972;48.774;9.282;2023-02-14T12:27:02;30.10;;;27.70;;
2157;SDS011;41972;48.774;9.282;2023-02-14T12:29:31;26.90;;;24.47;;
2157;SDS011;41972;48.774;9.282;2023-02-14T12:32:20;28.23;;;25.97;;
2157;SDS011;41972;48.774;9.282;2023-02-14T12:34:52;32.20;;;29.80;;
2157;SDS011;41972;48.774;9.282;2023-02-14T12:37:38;32.07;;;29.77;;
2157;SDS011;41972;48.774;9.282;2023-02-14T12:40:21;34.20;;;31.80;;
2157;SDS011;41972;48.774;9.282;2023-02-14T12:45:49;31.80;;;29.50;;
2157;SDS011;41972;48.774;9.282;2023-02-14T12:48:50;38.00;;;35.47;;
2157;SDS011;41972;48.774;9.282;2023-02-14T12:51:25;29.97;;;27.53;;
2157;SDS011;41972;48.774;9.282;2023-02-14T12:54:01;36.87;;;34.47;;
2157;SDS011;41972;48.774;9.282;2023-02-14T13:07:28;24.43;;;22.33;;
2157;SDS011;41972;48.774;9.282;2023-02-14T13:10:12;29.77;;;27.27;;
2157;SDS011;41972;48.774;9.282;2023-02-14T13:16:00;26.87;;;24.63;;
2157;SDS011;41972;48.774;9.282;2023-02-14T13:18:21;40.73;;;38.30;;
2157;SDS011;41972;48.774;9.282;2023-02-14T13:20:53;28.47;;;26.33;;
2157;SDS011;41972;48.774;9.282;2023-02-14T13:23:27;30.87;;;28.47;;
2157;SDS011;41972;48.774;9.282;2023-02-14T13:28:50;35.47;;;32.93;;
2157;SDS011;41972;48.774;9.282;2023-02-14T13:31:20;63.97;;;60.23;;
2157;SDS011;41972;48.774;9.282;2023-02-14T13:33:50;34.93;;;32.23;;
2157;SDS011;41972;48.774;9.282;2023-02-14T13:36:20;47.50;;;44.60;;
2157;SDS011;41972;48.774;9.282;2023-02-14T13:38:50;56.50;;;53.40;;
2157;SDS011;41972;48.774;9.282;2023-02-14T13:41:18;40.20;;;37.60;;
2157;SDS011;41972;48.774;9.282;2023-02-14T13:46:13;41.77;;;38.93;;
2157;SDS011;41972;48.774;9.282;2023-02-14T13:48:41;33.30;;;30.60;;
2157;SDS011;41972;48.774;9.282;2023-02-14T13:51:08;53.57;;;50.50;;
2157;SDS011;41972;48.774;9.282;2023-02-14T13:53:36;59.97;;;56.13;;
2157;SDS011;41972;48.774;9.282;2023-02-14T13:56:28;56.87;;;53.37;;
2157;SDS011;41972;48.774;9.282;2023-02-14T13:58:59;46.43;;;43.20;;
2157;SDS011;41972;48.774;9.282;2023-02-14T14:01:42;36.10;;;33.60;;
2157;SDS011;41972;48.774;9.282;2023-02-14T14:17:29;41.60;;;38.77;;
2157;SDS011;41972;48.774;9.282;2023-02-14T14:19:55;60.50;;;57.07;;
2157;SDS011;41972;48.774;9.282;2023-02-14T14:22:25;31.53;;;29.00;;
2157;SDS011;41972;48.774;9.282;2023-02-14T14:24:53;63.83;;;60.17;;
2157;SDS011;41972;48.774;9.282;2023-02-14T14:27:40;31.13;;;28.73;;
2157;SDS011;41972;48.774;9.282;2023-02-14T14:30:19;32.17;;;29.37;;
2157;SDS011;41972;48.774;9.282;2023-02-14T14:32:49;37.87;;;34.70;;
2157;SDS011;41972;48.774;9.282;2023-02-14T14:40:34;41.53;;;38.57;;
2157;SDS011;41972;48.774;9.282;2023-02-14T14:43:15;30.70;;;28.10;;
2157;SDS011;41972;48.774;9.282;2023-02-14T14:45:52;29.00;;;26.60;;
2157;SDS011;41972;48.774;9.282;2023-02-14T14:48:27;30.33;;;27.90;;
2157;SDS011;41972;48.774;9.282;2023-02-14T14:50:55;29.60;;;27.10;;
2157;SDS011;41972;48.774;9.282;2023-02-14T14:53:35;30.33;;;27.83;;
2157;SDS011;41972;48.774;9.282;2023-02-14T14:56:24;33.20;;;30.40;;
2157;SDS011;41972;48.774;9.282;2023-02-14T14:58:52;33.17;;;30.43;;
2157;SDS011;41972;48.774;9.282;2023-02-14T15:01:29;31.30;;;28.70;;
2157;SDS011;41972;48.774;9.282;2023-02-14T15:04:07;41.60;;;38.33;;
2157;SDS011;41972;48.774;9.282;2023-02-14T15:06:41;41.40;;;38.10;;
2157;SDS011;41972;48.774;9.282;2023-02-14T15:09:14;33.07;;;30.33;;
2157;SDS011;41972;48.774;9.282;2023-02-14T15:11:44;33.13;;;30.33;;
2157;SDS011;41972;48.774;9.282;2023-02-14T15:14:29;53.10;;;49.03;;
2157;SDS011;41972;48.774;9.282;2023-02-14T15:17:03;35.13;;;32.13;;
2157;SDS011;41972;48.774;9.282;2023-02-14T15:19:34;44.83;;;41.63;;
2157;SDS011;41972;48.774;9.282;2023-02-14T15:24:46;56.83;;;53.03;;
2157;SDS011;41972;48.774;9.282;2023-02-14T15:27:16;40.70;;;37.47;;
2157;SDS011;41972;48.774;9.282;2023-02-14T15:30:00;54.43;;;50.83;;
2157;SDS011;41972;48.774;9.282;2023-02-14T15:32:29;44.57;;;41.33;;
2157;SDS011;41972;48.774;9.282;2023-02-14T15:34:59;86.37;;;81.80;;
2157;SDS011;41972;48.774;9.282;2023-02-14T15:37:27;76.67;;;72.13;;
2157;SDS011;41972;48.774;9.282;2023-02-14T15:39:54;50.77;;;47.50;;
2157;SDS011;41972;48.774;9.282;2023-02-14T15:42:39;44.17;;;41.20;;
2157;SDS011;41972;48.774;9.282;2023-02-14T15:45:19;44.40;;;41.23;;
2157;SDS011;41972;48.774;9.282;2023-02-14T15:47:55;51.00;;;47.50;;
2157;SDS011;41972;48.774;9.282;2023-02-14T15:50:27;39.70;;;36.57;;
2157;SDS011;41972;48.774;9.282;2023-02-14T15:53:01;49.00;;;45.70;;
2157;SDS011;41972;48.774;9.282;2023-02-14T15:55:32;48.43;;;45.00;;
2157;SDS011;41972;48.774;9.282;2023-02-14T15:58:01;48.57;;;45.20;;
2157;SDS011;41972;48.774;9.282;2023-02-14T16:00:29;48.90;;;45.60;;
2157;SDS011;41972;48.774;9.282;2023-02-14T16:02:57;71.13;;;67.17;;
2157;SDS011;41972;48.774;9.282;2023-02-14T16:05:28;41.20;;;38.07;;
2157;SDS011;41972;48.774;9.282;2023-02-14T16:10:26;40.97;;;37.77;;
2157;SDS011;41972;48.774;9.282;2023-02-14T16:15:30;41.77;;;38.77;;
2157;SDS011;41972;48.774;9.282;2023-02-14T16:17:57;40.37;;;37.40;;
2157;SDS011;41972;48.774;9.282;2023-02-14T16:20:26;53.57;;;50.07;;
2157;SDS011;41972;48.774;9.282;2023-02-14T16:23:11;62.93;;;59.07;;
2157;SDS011;41972;48.774;9.282;2023-02-14T16:25:48;59.50;;;55.97;;
2157;SDS011;41972;48.774;9.282;2023-02-14T16:28:17;60.40;;;56.30;;
2157;SDS011;41972;48.774;9.282;2023-02-14T16:30:43;43.47;;;39.87;;
2157;SDS011;41972;48.774;9.282;2023-02-14T16:33:12;41.53;;;38.23;;
2157;SDS011;41972;48.774;9.282;2023-02-14T16:35:46;42.90;;;39.67;;
2157;SDS011;41972;48.774;9.282;2023-02-14T16:38:13;61.07;;;57.57;;
2157;SDS011;41972;48.774;9.282;2023-02-14T16:40:42;39.93;;;36.70;;
2157;SDS011;41972;48.774;9.282;2023-02-14T16:43:13;36.73;;;33.70;;
2157;SDS011;41972;48.774;9.282;2023-02-14T16:45:40;73.97;;;69.87;;
2157;SDS011;41972;48.774;9.282;2023-02-14T16:48:06;59.80;;;56.10;;
2157;SDS011;41972;48.774;9.282;2023-02-14T16:50:32;38.87;;;35.57;;
2157;SDS011;41972;48.774;9.282;2023-02-14T16:53:00;40.27;;;36.67;;
2157;SDS011;41972;48.774;9.282;2023-02-14T16:55:26;45.53;;;41.73;;
2157;SDS011;41972;48.774;9.282;2023-02-14T16:57:54;38.87;;;35.47;;
2157;SDS011;41972;48.774;9.282;2023-02-14T17:00:20;40.93;;;37.37;;
2157;SDS011;41972;48.774;9.282;2023-02-14T17:02:46;54.83;;;51.03;;
2157;SDS011;41972;48.774;9.282;2023-02-14T17:05:12;54.40;;;50.57;;
2157;SDS011;41972;48.774;9.282;2023-02-14T17:07:38;41.87;;;38.27;;
2157;SDS011;41972;48.774;9.282;2023-02-14T17:10:07;38.60;;;35.20;;
2157;SDS011;41972;48.774;9.282;2023-02-14T17:12:39;39.50;;;35.93;;